Time;durP1;ratioP1;P1;durP2;ratioP2;P2;SDS_P1;SDS_P2;PMS_P1;PMS_P2;Temp;Humidity;BMP_temperature;BMP_pressure;BME280_temperature;BME280_humidity;BME280_pressure;Samples;Min_cycle;Max_cycle;Signal;HPM_P1;HPM_P2
2023/09/07 00:00:22;;;;;;;2.80;2.60;;;24.00;50.00;;;;;;5009947;28;21371;-67
2023/09/07 00:02:48;;;;;;;2.43;2.33;;;24.00;50.00;;;;;;5009868;28;20245;-65
2023/09/07 00:05:14;;;;;;;2.63;2.43;;;24.00;50.00;;;;;;5008670;28;20273;-63
2023/09/07 00:07:39;;;;;;;2.83;2.67;;;24.00;50.00;;;;;;5008388;28;20254;-69
2023/09/07 00:10:05;;;;;;;2.67;2.57;;;24.00;50.00;;;;;;5008145;28;20577;-68
2023/09/07 00:12:31;;;;;;;2.77;2.67;;;24.00;50.00;;;;;;5008332;28;20614;-64
2023/09/07 00:14:57;;;;;;;2.50;2.40;;;24.00;50.00;;;;;;5011191;28;20276;-64
2023/09/07 00:17:24;;;;;;;2.30;2.20;;;24.00;50.00;;;;;;5010506;28;20250;-64
2023/09/07 00:19:50;;;;;;;2.80;2.70;;;24.00;50.00;;;;;;5009408;28;20465;-66
2023/09/07 00:22:17;;;;;;;2.97;2.77;;;24.00;50.00;;;;;;5009496;28;20533;-67
2023/09/07 00:24:42;;;;;;;2.50;2.40;;;24.00;50.00;;;;;;5008766;28;20480;-64
2023/09/07 00:27:08;;;;;;;2.50;2.40;;;24.00;50.00;;;;;;4992347;28;20492;-64
2023/09/07 00:29:36;;;;;;;2.70;2.60;;;24.00;50.00;;;;;;5010635;28;20246;-71
2023/09/07 00:32:02;;;;;;;2.77;2.67;;;24.00;50.00;;;;;;5010910;28;20233;-65
2023/09/07 00:34:28;;;;;;;2.87;2.67;;;24.00;50.10;;;;;;5009400;28;20452;-64
2023/09/07 00:36:53;;;;;;;2.40;2.30;;;24.00;50.00;;;;;;5007689;28;20241;-66
2023/09/07 00:39:19;;;;;;;2.70;2.60;;;24.00;50.10;;;;;;5009356;28;20215;-63
2023/09/07 00:41:44;;;;;;;2.77;2.67;;;24.00;50.10;;;;;;5005529;28;20219;-67
2023/09/07 00:44:10;;;;;;;2.50;2.40;;;24.00;50.10;;;;;;5010937;28;20230;-64
2023/09/07 00:46:36;;;;;;;2.50;2.40;;;24.00;50.00;;;;;;5010468;28;20249;-67
2023/09/07 00:49:02;;;;;;;2.43;2.33;;;24.00;50.10;;;;;;5008669;28;20281;-64
2023/09/07 00:51:28;;;;;;;2.63;2.53;;;24.00;50.00;;;;;;5007148;28;23508;-65
2023/09/07 00:53:54;;;;;;;2.60;2.50;;;24.00;50.00;;;;;;5008564;28;20468;-64
2023/09/07 00:56:20;;;;;;;2.93;2.83;;;24.00;50.10;;;;;;5009128;28;20976;-64
2023/09/07 00:58:45;;;;;;;3.07;2.93;;;24.00;50.10;;;;;;5009141;28;20226;-64
2023/09/07 01:01:11;;;;;;;2.93;2.80;;;24.00;50.10;;;;;;5007781;28;21048;-70
2023/09/07 01:03:36;;;;;;;2.50;2.30;;;24.00;50.10;;;;;;5010217;28;20666;-67
2023/09/07 01:06:12;;;;;;;3.07;2.90;;;24.00;50.10;;;;;;5006554;28;20215;-64
2023/09/07 01:08:48;;;;;;;2.97;2.80;;;24.00;50.00;;;;;;5007609;28;20728;-65
2023/09/07 01:11:18;;;;;;;2.43;2.33;;;24.00;50.00;;;;;;5007538;28;20810;-65
2023/09/07 01:13:43;;;;;;;2.87;2.77;;;24.00;50.10;;;;;;5007686;28;21442;-65
2023/09/07 01:16:10;;;;;;;3.10;2.90;;;24.00;50.10;;;;;;5009126;28;20526;-66
2023/09/07 01:18:37;;;;;;;2.60;2.50;;;24.00;50.10;;;;;;5010614;28;20238;-65
2023/09/07 01:21:05;;;;;;;2.60;2.40;;;24.00;50.10;;;;;;5008399;28;20627;-63
2023/09/07 01:23:31;;;;;;;2.77;2.57;;;24.00;50.10;;;;;;5005852;28;20460;-66
2023/09/07 01:25:58;;;;;;;2.80;2.60;;;24.00;50.10;;;;;;5007814;28;20468;-66
2023/09/07 01:28:23;;;;;;;2.90;2.80;;;24.00;50.10;;;;;;5009160;28;20475;-63
2023/09/07 01:30:52;;;;;;;2.43;2.33;;;24.00;50.10;;;;;;4992271;28;20482;-64
2023/09/07 01:33:17;;;;;;;2.50;2.40;;;24.00;50.10;;;;;;5009312;28;20234;-64
2023/09/07 01:35:45;;;;;;;2.80;2.70;;;24.00;50.10;;;;;;5007536;28;20460;-64
2023/09/07 01:38:11;;;;;;;2.73;2.63;;;24.00;50.90;;;;;;5007107;28;20296;-65
2023/09/07 01:40:36;;;;;;;2.90;2.80;;;24.00;50.10;;;;;;5005550;28;20917;-69
2023/09/07 01:43:02;;;;;;;3.00;2.90;;;24.00;50.10;;;;;;5006491;28;20226;-66
2023/09/07 01:45:27;;;;;;;2.97;2.80;;;24.00;50.10;;;;;;5007969;28;20310;-64
2023/09/07 01:47:53;;;;;;;2.53;2.43;;;24.00;50.10;;;;;;5007277;28;20239;-63
2023/09/07 01:50:19;;;;;;;3.07;2.97;;;24.00;50.10;;;;;;5006904;28;20234;-63
2023/09/07 01:52:48;;;;;;;2.87;2.77;;;24.00;50.10;;;;;;5007671;28;20323;-68
2023/09/07 01:55:14;;;;;;;2.53;2.43;;;24.00;50.10;;;;;;5005268;28;20456;-64
2023/09/07 01:57:39;;;;;;;2.73;2.63;;;24.00;50.10;;;;;;5006067;28;20959;-67
2023/09/07 02:00:06;;;;;;;2.60;2.50;;;24.00;50.10;;;;;;5009513;28;20552;-70
2023/09/07 02:02:31;;;;;;;2.77;2.67;;;24.00;50.10;;;;;;5007319;28;20230;-64
2023/09/07 02:04:57;;;;;;;2.70;2.60;;;24.00;50.10;;;;;;5007553;28;20464;-64
2023/09/07 02:07:22;;;;;;;2.70;2.60;;;24.00;50.10;;;;;;5005103;28;21809;-64
2023/09/07 02:09:48;;;;;;;2.87;2.77;;;24.00;50.10;;;;;;5006812;28;20218;-63
2023/09/07 02:12:14;;;;;;;2.60;2.50;;;24.00;50.10;;;;;;5002733;28;20218;-64
2023/09/07 02:14:39;;;;;;;2.30;2.20;;;24.00;50.10;;;;;;5005507;28;20229;-70
2023/09/07 02:17:05;;;;;;;2.73;2.63;;;24.00;50.10;;;;;;5007537;28;20229;-67
2023/09/07 02:19:30;;;;;;;2.90;2.80;;;24.00;50.10;;;;;;5008449;28;20234;-66
2023/09/07 02:21:56;;;;;;;2.40;2.30;;;24.00;50.10;;;;;;5009644;28;20244;-65
2023/09/07 02:24:21;;;;;;;3.30;3.10;;;24.00;50.10;;;;;;5007998;28;20321;-64
2023/09/07 02:26:47;;;;;;;2.50;2.40;;;24.00;50.10;;;;;;5004490;28;20289;-64
2023/09/07 02:29:13;;;;;;;2.50;2.40;;;24.00;50.10;;;;;;5005203;28;20257;-65
2023/09/07 02:31:40;;;;;;;3.13;2.93;;;24.00;50.10;;;;;;5008073;28;20792;-67
2023/09/07 02:34:05;;;;;;;2.37;2.27;;;24.00;50.20;;;;;;5009756;28;20226;-67
2023/09/07 02:36:31;;;;;;;2.80;2.70;;;24.00;50.10;;;;;;5008555;28;20456;-69
2023/09/07 02:38:57;;;;;;;2.60;2.50;;;24.00;50.10;;;;;;5009783;28;20227;-64
2023/09/07 02:41:22;;;;;;;2.60;2.40;;;24.00;50.10;;;;;;5008098;28;20237;-63
2023/09/07 02:43:48;;;;;;;2.93;2.83;;;24.00;50.10;;;;;;5008735;28;20215;-63
2023/09/07 02:46:13;;;;;;;2.57;2.47;;;24.00;50.10;;;;;;5009501;28;20652;-65
2023/09/07 02:48:39;;;;;;;2.40;2.30;;;24.00;50.10;;;;;;5005405;28;20322;-70
2023/09/07 02:51:05;;;;;;;2.87;2.77;;;24.00;50.10;;;;;;5010261;28;20588;-67
2023/09/07 02:53:30;;;;;;;2.83;2.63;;;24.00;50.20;;;;;;5015143;28;20326;-66
2023/09/07 02:55:56;;;;;;;2.40;2.30;;;24.00;50.50;;;;;;5016297;28;20306;-66
2023/09/07 02:58:23;;;;;;;2.60;2.50;;;24.00;50.20;;;;;;5014453;28;20309;-66
2023/09/07 03:00:48;;;;;;;2.83;2.70;;;24.00;50.20;;;;;;5009291;28;20222;-64
2023/09/07 03:03:14;;;;;;;2.57;2.47;;;24.00;50.20;;;;;;5014508;28;20621;-70
2023/09/07 03:05:41;;;;;;;2.47;2.37;;;24.00;50.20;;;;;;5012670;28;20265;-67
2023/09/07 03:08:07;;;;;;;2.20;2.10;;;24.00;50.20;;;;;;5012161;28;20764;-67
2023/09/07 03:10:32;;;;;;;2.50;2.40;;;24.00;50.20;;;;;;5012931;28;20479;-65
2023/09/07 03:12:58;;;;;;;2.53;2.43;;;24.00;50.20;;;;;;5011995;28;20453;-64
2023/09/07 03:15:23;;;;;;;2.77;2.67;;;24.00;50.20;;;;;;5014856;28;20284;-65
2023/09/07 03:17:49;;;;;;;2.73;2.63;;;24.00;50.20;;;;;;5013077;28;20233;-63
2023/09/07 03:20:16;;;;;;;2.23;2.13;;;24.00;50.20;;;;;;5014665;28;20249;-64
2023/09/07 03:22:42;;;;;;;3.03;2.83;;;24.00;50.20;;;;;;5012659;28;20218;-64
2023/09/07 03:25:09;;;;;;;2.67;2.57;;;24.00;50.20;;;;;;5014096;28;20486;-67
2023/09/07 03:27:35;;;;;;;2.67;2.53;;;24.00;50.10;;;;;;5015427;28;20479;-67
2023/09/07 03:30:01;;;;;;;2.60;2.50;;;24.00;50.20;;;;;;5010850;28;20460;-65
2023/09/07 03:32:31;;;;;;;2.70;2.60;;;24.00;50.10;;;;;;5013653;28;20868;-67
2023/09/07 03:34:57;;;;;;;3.17;2.30;;;24.00;50.20;;;;;;5013769;28;20365;-63
2023/09/07 03:37:22;;;;;;;2.57;2.47;;;24.00;50.20;;;;;;4998344;28;20448;-64
2023/09/07 03:39:48;;;;;;;2.80;2.70;;;24.00;50.20;;;;;;5012738;28;20222;-66
2023/09/07 03:42:13;;;;;;;3.10;2.90;;;24.00;50.20;;;;;;5014783;28;20251;-65
2023/09/07 03:44:39;;;;;;;2.37;2.27;;;24.00;50.20;;;;;;5014105;28;20701;-65
2023/09/07 03:47:05;;;;;;;2.70;2.60;;;24.00;50.20;;;;;;5014637;28;21063;-68
2023/09/07 03:49:30;;;;;;;2.57;2.47;;;24.00;50.20;;;;;;5013042;28;20302;-65
2023/09/07 03:51:56;;;;;;;2.40;2.30;;;24.00;50.20;;;;;;5014004;28;20223;-69
2023/09/07 03:54:22;;;;;;;2.30;2.20;;;24.00;50.20;;;;;;5014103;28;20223;-66
2023/09/07 03:56:47;;;;;;;2.27;2.17;;;24.00;50.20;;;;;;5013734;28;21066;-68
2023/09/07 03:59:13;;;;;;;2.53;2.43;;;24.00;50.20;;;;;;5012841;28;20541;-67
2023/09/07 04:01:39;;;;;;;2.43;2.33;;;24.00;50.30;;;;;;5010255;28;20220;-64
2023/09/07 04:04:05;;;;;;;2.70;2.50;;;24.00;50.20;;;;;;5008767;28;20770;-69
2023/09/07 04:06:30;;;;;;;2.73;2.60;;;24.00;50.30;;;;;;5011132;28;20258;-66
2023/09/07 04:08:56;;;;;;;2.73;2.63;;;24.00;50.20;;;;;;5012494;28;20598;-64
2023/09/07 04:11:21;;;;;;;2.60;2.50;;;24.00;50.20;;;;;;5010741;28;20233;-62
2023/09/07 04:13:47;;;;;;;3.20;3.00;;;24.00;50.10;;;;;;5007327;28;20253;-69
2023/09/07 04:16:12;;;;;;;2.57;2.47;;;24.00;50.10;;;;;;5010611;28;20211;-63
2023/09/07 04:18:38;;;;;;;3.10;2.90;;;24.00;50.00;;;;;;5004666;28;20269;-64
2023/09/07 04:21:10;;;;;;;2.77;2.67;;;24.00;50.10;;;;;;5008409;28;20235;-62
2023/09/07 04:23:35;;;;;;;2.80;2.70;;;24.00;50.00;;;;;;5006136;28;20243;-68
2023/09/07 04:26:08;;;;;;;2.97;2.87;;;24.10;50.10;;;;;;5007261;28;20558;-64
2023/09/07 04:28:34;;;;;;;2.50;2.40;;;24.10;50.00;;;;;;5008044;28;20663;-62
2023/09/07 04:31:00;;;;;;;3.13;2.93;;;24.10;50.00;;;;;;5007305;28;20467;-64
2023/09/07 04:33:25;;;;;;;3.33;3.13;;;24.10;50.00;;;;;;5008118;28;20227;-64
2023/09/07 04:35:51;;;;;;;3.40;3.20;;;24.10;50.00;;;;;;5006167;28;20226;-62
2023/09/07 04:38:16;;;;;;;2.57;2.47;;;24.10;50.00;;;;;;5003896;28;20302;-69
2023/09/07 04:40:42;;;;;;;2.80;2.70;;;24.10;50.10;;;;;;5007600;28;20218;-60
2023/09/07 04:43:07;;;;;;;2.83;2.73;;;24.10;50.00;;;;;;5004967;28;20648;-62
2023/09/07 04:45:33;;;;;;;3.83;3.10;;;24.10;50.00;;;;;;5002331;28;20222;-62
2023/09/07 04:47:58;;;;;;;3.60;3.27;;;24.10;50.80;;;;;;5005763;28;21067;-65
2023/09/07 04:50:24;;;;;;;2.93;2.73;;;24.10;49.70;;;;;;5003964;28;20230;-63
2023/09/07 04:52:50;;;;;;;3.07;2.57;;;24.10;49.60;;;;;;5005804;28;20242;-66
2023/09/07 04:55:15;;;;;;;2.70;2.60;;;24.10;49.60;;;;;;5007361;28;20223;-61
2023/09/07 04:57:41;;;;;;;3.17;3.00;;;24.10;49.60;;;;;;4988328;28;20613;-64
2023/09/07 05:00:09;;;;;;;3.00;2.90;;;24.10;49.60;;;;;;5007060;28;20223;-62
2023/09/07 05:02:40;;;;;;;3.30;3.10;;;24.10;49.60;;;;;;5008736;28;20223;-64
2023/09/07 05:05:06;;;;;;;3.33;3.13;;;24.10;49.60;;;;;;5006558;28;20463;-67
2023/09/07 05:07:32;;;;;;;3.00;2.80;;;24.10;49.50;;;;;;5004907;28;20473;-65
2023/09/07 05:09:57;;;;;;;3.00;2.80;;;24.10;49.50;;;;;;5005460;28;21226;-66
2023/09/07 05:12:23;;;;;;;3.03;2.90;;;24.10;49.50;;;;;;5003367;28;20313;-61
2023/09/07 05:14:48;;;;;;;3.00;2.80;;;24.10;49.50;;;;;;4998639;28;20302;-61
2023/09/07 05:17:14;;;;;;;3.40;3.20;;;24.10;49.30;;;;;;5003472;28;20312;-63
2023/09/07 05:19:39;;;;;;;3.53;3.33;;;24.10;49.30;;;;;;5003632;28;20254;-68
2023/09/07 05:22:05;;;;;;;2.70;2.60;;;24.10;49.40;;;;;;5003570;28;20253;-64
2023/09/07 05:24:30;;;;;;;3.30;3.10;;;24.10;49.30;;;;;;5005478;28;20746;-64
2023/09/07 05:26:56;;;;;;;2.80;2.70;;;24.10;49.30;;;;;;5005321;28;20317;-65
2023/09/07 05:29:22;;;;;;;2.90;2.80;;;24.20;49.40;;;;;;4999951;28;20235;-65
2023/09/07 05:31:48;;;;;;;3.50;3.30;;;24.10;49.30;;;;;;5004083;28;20583;-69
2023/09/07 05:34:13;;;;;;;2.97;2.87;;;24.10;49.40;;;;;;5010127;28;20479;-68
2023/09/07 05:36:39;;;;;;;3.33;3.13;;;24.10;49.30;;;;;;4992378;28;20770;-63
2023/09/07 05:39:04;;;;;;;3.60;3.40;;;24.10;49.40;;;;;;5007750;28;20230;-65
2023/09/07 05:41:30;;;;;;;2.90;2.80;;;24.10;49.50;;;;;;5011198;28;20253;-68
2023/09/07 05:43:56;;;;;;;3.43;3.13;;;24.10;49.40;;;;;;5006609;28;20880;-70
2023/09/07 05:46:21;;;;;;;2.50;2.40;;;24.10;49.50;;;;;;5005564;28;20215;-64
2023/09/07 05:48:47;;;;;;;3.57;3.37;;;24.10;49.50;;;;;;4990964;28;20632;-63
2023/09/07 05:51:12;;;;;;;3.37;3.17;;;24.10;49.50;;;;;;5004387;28;20218;-65
2023/09/07 05:53:39;;;;;;;3.43;3.23;;;24.10;49.50;;;;;;5005001;28;20218;-68
2023/09/07 05:56:05;;;;;;;3.07;2.90;;;24.10;49.50;;;;;;5008431;28;20863;-66
2023/09/07 05:58:30;;;;;;;3.13;2.93;;;24.10;49.50;;;;;;5002031;28;20456;-65
2023/09/07 06:00:56;;;;;;;2.73;2.63;;;24.10;49.50;;;;;;5007051;28;20256;-68
2023/09/07 06:03:21;;;;;;;3.47;3.27;;;24.10;49.50;;;;;;5004578;28;20313;-63
2023/09/07 06:05:47;;;;;;;3.03;2.83;;;24.10;49.50;;;;;;5007914;28;20226;-62
2023/09/07 06:08:13;;;;;;;3.60;3.40;;;24.10;49.50;;;;;;5002376;28;20650;-66
2023/09/07 06:10:38;;;;;;;3.40;3.20;;;24.10;49.50;;;;;;4992934;28;20219;-65
2023/09/07 06:13:04;;;;;;;3.23;3.07;;;24.10;49.50;;;;;;5006627;28;20223;-65
2023/09/07 06:15:29;;;;;;;3.57;3.37;;;24.10;49.50;;;;;;4996456;28;20223;-62
2023/09/07 06:17:55;;;;;;;3.30;3.10;;;24.10;49.50;;;;;;5002313;28;20214;-64
2023/09/07 06:20:21;;;;;;;3.10;2.93;;;24.10;49.50;;;;;;4998728;28;20222;-70
2023/09/07 06:22:46;;;;;;;2.87;2.77;;;24.10;49.50;;;;;;5005208;28;20226;-70
2023/09/07 06:25:12;;;;;;;3.73;3.53;;;24.10;49.50;;;;;;5005723;28;20238;-63
2023/09/07 06:27:40;;;;;;;3.00;2.80;;;24.10;49.50;;;;;;5006104;28;22095;-67
2023/09/07 06:30:06;;;;;;;3.50;3.30;;;24.10;49.60;;;;;;5004918;28;20227;-68
2023/09/07 06:32:32;;;;;;;3.67;3.47;;;24.10;49.50;;;;;;5004278;28;20470;-71
2023/09/07 06:34:58;;;;;;;3.40;3.20;;;24.10;49.50;;;;;;4998100;28;20846;-69
2023/09/07 06:37:24;;;;;;;3.50;3.30;;;24.10;49.50;;;;;;5001398;28;20234;-63
2023/09/07 06:39:50;;;;;;;3.23;3.13;;;24.10;49.50;;;;;;5000348;28;20737;-68
2023/09/07 06:42:16;;;;;;;3.30;3.10;;;24.10;49.50;;;;;;4984469;28;20767;-68
2023/09/07 06:44:42;;;;;;;2.90;2.80;;;24.10;49.60;;;;;;5005719;28;20867;-64
2023/09/07 06:47:08;;;;;;;3.40;3.20;;;24.10;49.60;;;;;;5003453;28;20515;-63
2023/09/07 06:49:34;;;;;;;2.97;2.80;;;24.10;49.60;;;;;;5004437;28;20536;-72
2023/09/07 06:52:00;;;;;;;3.33;3.20;;;24.10;49.60;;;;;;5002499;28;20329;-67
2023/09/07 06:54:27;;;;;;;2.97;2.87;;;24.20;49.60;;;;;;4988090;28;20249;-66
2023/09/07 06:56:53;;;;;;;3.40;3.20;;;24.10;49.60;;;;;;5005458;28;20336;-63
2023/09/07 06:59:18;;;;;;;3.40;3.20;;;24.10;49.60;;;;;;5005101;28;20880;-70
2023/09/07 07:01:44;;;;;;;2.83;2.73;;;24.10;49.60;;;;;;4997930;28;20229;-66
2023/09/07 07:04:09;;;;;;;3.50;3.30;;;24.10;49.60;;;;;;5004253;28;20301;-71
2023/09/07 07:06:35;;;;;;;3.23;3.03;;;24.10;49.50;;;;;;5004965;28;22505;-64
2023/09/07 07:09:00;;;;;;;3.37;3.17;;;24.10;49.60;;;;;;5004954;28;21067;-64
2023/09/07 07:11:26;;;;;;;3.47;3.27;;;24.10;49.50;;;;;;5006772;28;20672;-63
2023/09/07 07:13:51;;;;;;;3.50;3.30;;;24.10;49.60;;;;;;5002903;28;20223;-64
2023/09/07 07:16:17;;;;;;;3.60;3.40;;;24.20;49.60;;;;;;5001133;28;20607;-64
2023/09/07 07:18:43;;;;;;;3.30;3.10;;;24.10;49.70;;;;;;5005443;28;20223;-64
2023/09/07 07:21:09;;;;;;;3.13;3.03;;;24.10;49.50;;;;;;5004034;28;20228;-66
2023/09/07 07:23:34;;;;;;;3.10;2.90;;;24.10;49.60;;;;;;5002302;28;20254;-63
2023/09/07 07:26:00;;;;;;;3.27;3.17;;;24.10;49.50;;;;;;5006669;28;20237;-69
2023/09/07 07:28:26;;;;;;;4.30;3.10;;;24.10;49.60;;;;;;5002360;28;20730;-67
2023/09/07 07:30:53;;;;;;;3.50;3.27;;;24.20;49.60;;;;;;5003434;28;21122;-64
2023/09/07 07:33:19;;;;;;;3.37;3.17;;;24.10;49.50;;;;;;5002099;28;20223;-63
2023/09/07 07:35:45;;;;;;;2.83;2.73;;;24.20;49.60;;;;;;5005982;28;20555;-67
2023/09/07 07:38:13;;;;;;;2.90;2.70;;;24.10;49.50;;;;;;5008287;28;20561;-69
2023/09/07 07:40:39;;;;;;;3.53;3.33;;;24.20;49.60;;;;;;5010174;28;20485;-63
2023/09/07 07:43:05;;;;;;;3.20;3.00;;;24.20;49.50;;;;;;5006065;28;20854;-65
2023/09/07 07:45:36;;;;;;;3.73;3.53;;;24.20;49.60;;;;;;5006233;28;20464;-69
2023/09/07 07:48:02;;;;;;;2.80;2.70;;;24.20;49.60;;;;;;5008919;28;20481;-66
2023/09/07 07:50:27;;;;;;;3.47;3.27;;;24.20;49.60;;;;;;5010189;28;20541;-69
2023/09/07 07:52:53;;;;;;;3.10;2.90;;;24.20;49.60;;;;;;5006389;28;20670;-68
2023/09/07 07:55:18;;;;;;;3.30;3.10;;;24.20;49.60;;;;;;5006774;28;20622;-65
2023/09/07 07:57:44;;;;;;;3.40;3.20;;;24.20;49.60;;;;;;5007947;28;20974;-63
2023/09/07 08:00:10;;;;;;;3.40;3.20;;;24.20;49.60;;;;;;5008599;28;20237;-63
2023/09/07 08:02:35;;;;;;;3.40;3.20;;;24.20;49.60;;;;;;5003180;28;20683;-69
2023/09/07 08:05:01;;;;;;;3.30;3.10;;;24.20;49.50;;;;;;5008599;28;20487;-67
2023/09/07 08:07:27;;;;;;;2.63;2.53;;;24.20;49.60;;;;;;5003234;28;20226;-67
2023/09/07 08:09:53;;;;;;;3.07;2.90;;;24.20;49.50;;;;;;5008458;28;20237;-63
2023/09/07 08:12:18;;;;;;;3.40;3.20;;;24.20;49.50;;;;;;5009135;28;20781;-64
2023/09/07 08:14:44;;;;;;;2.97;2.87;;;24.20;49.50;;;;;;5007393;28;20374;-71
2023/09/07 08:17:09;;;;;;;3.00;2.90;;;24.20;49.50;;;;;;4988006;28;20254;-67
2023/09/07 08:19:35;;;;;;;3.20;3.10;;;24.20;49.60;;;;;;5005642;28;20374;-66
2023/09/07 08:22:03;;;;;;;3.30;3.10;;;24.20;49.60;;;;;;5005616;28;20227;-65
2023/09/07 08:24:30;;;;;;;3.73;3.50;;;24.20;49.50;;;;;;5004155;28;20226;-65
2023/09/07 08:26:57;;;;;;;3.17;3.00;;;24.20;49.60;;;;;;5005832;28;20463;-66
2023/09/07 08:29:26;;;;;;;3.50;3.30;;;24.20;49.60;;;;;;5007896;28;20226;-63
2023/09/07 08:31:55;;;;;;;2.80;2.70;;;24.20;49.60;;;;;;5005992;28;21083;-64
2023/09/07 08:34:22;;;;;;;3.10;2.90;;;24.20;49.60;;;;;;5008947;28;20540;-62
2023/09/07 08:36:49;;;;;;;3.40;3.20;;;24.20;49.50;;;;;;5004418;28;20995;-69
2023/09/07 08:39:15;;;;;;;3.60;3.40;;;24.20;49.60;;;;;;5009922;28;20522;-67
2023/09/07 08:41:43;;;;;;;3.27;3.17;;;24.20;50.30;;;;;;5004588;28;22090;-64
2023/09/07 08:44:15;;;;;;;3.60;3.40;;;24.30;49.70;;;;;;5009272;28;20459;-63
2023/09/07 08:46:42;;;;;;;3.20;3.10;;;24.20;49.50;;;;;;5007199;28;20539;-63
2023/09/07 08:49:09;;;;;;;3.30;3.10;;;24.30;49.60;;;;;;5007174;28;20487;-64
2023/09/07 08:51:37;;;;;;;3.00;2.80;;;24.20;49.50;;;;;;5007787;28;20460;-66
2023/09/07 08:54:03;;;;;;;2.60;2.50;;;24.20;49.50;;;;;;5007231;28;20461;-68
2023/09/07 08:56:28;;;;;;;3.17;3.07;;;24.30;49.60;;;;;;5005537;28;20460;-64
2023/09/07 08:58:54;;;;;;;3.30;3.10;;;24.20;49.50;;;;;;5004313;28;20459;-62
2023/09/07 09:01:23;;;;;;;3.13;2.93;;;24.30;49.60;;;;;;5007488;28;20637;-67
2023/09/07 09:03:50;;;;;;;2.77;2.67;;;24.30;49.60;;;;;;5006240;28;20246;-67
2023/09/07 09:06:20;;;;;;;3.13;2.93;;;24.30;49.60;;;;;;5005777;28;20531;-64
2023/09/07 09:08:52;;;;;;;3.30;3.10;;;24.30;49.60;;;;;;5003647;28;21054;-64
2023/09/07 09:11:18;;;;;;;3.27;2.97;;;24.30;49.60;;;;;;5004878;28;20471;-70
2023/09/07 09:13:44;;;;;;;3.23;3.03;;;24.30;49.60;;;;;;5005401;28;20972;-64
2023/09/07 09:16:11;;;;;;;3.30;3.10;;;24.30;49.60;;;;;;5007382;28;20464;-65
2023/09/07 09:18:37;;;;;;;2.77;2.67;;;24.30;49.60;;;;;;5005987;28;20495;-66
2023/09/07 09:21:04;;;;;;;2.93;2.83;;;24.30;49.60;;;;;;5007001;28;20460;-68
2023/09/07 09:23:35;;;;;;;2.73;2.63;;;24.30;49.60;;;;;;5006691;28;20508;-64
2023/09/07 09:26:05;;;;;;;3.50;3.30;;;24.30;49.60;;;;;;5004833;28;21087;-67
2023/09/07 09:28:36;;;;;;;3.37;3.17;;;24.30;49.60;;;;;;5004707;28;22226;-64
2023/09/07 09:31:03;;;;;;;3.23;3.03;;;24.30;49.60;;;;;;5007057;28;20799;-64
2023/09/07 09:33:31;;;;;;;2.87;2.73;;;24.30;49.60;;;;;;4993310;28;20463;-64
2023/09/07 09:35:57;;;;;;;3.10;3.00;;;24.30;49.70;;;;;;5008701;28;20531;-63
2023/09/07 09:38:23;;;;;;;3.23;3.10;;;24.30;49.60;;;;;;5005145;28;20472;-71
2023/09/07 09:40:49;;;;;;;3.17;2.97;;;24.30;49.60;;;;;;5006997;28;20476;-63
2023/09/07 09:43:16;;;;;;;3.20;3.00;;;24.30;49.60;;;;;;5008100;28;20528;-68
2023/09/07 09:45:42;;;;;;;3.27;3.07;;;24.30;49.60;;;;;;4986948;28;20822;-65
2023/09/07 09:48:09;;;;;;;2.93;2.80;;;24.30;49.60;;;;;;5006317;28;20544;-66
2023/09/07 09:50:37;;;;;;;2.73;2.63;;;24.30;49.60;;;;;;5007424;28;20220;-67
2023/09/07 09:53:06;;;;;;;2.83;2.73;;;24.30;49.60;;;;;;4988185;28;20551;-64
2023/09/07 09:55:33;;;;;;;2.97;2.77;;;24.30;49.60;;;;;;5009892;28;20767;-65
2023/09/07 09:57:58;;;;;;;3.50;3.30;;;24.30;49.60;;;;;;5005728;28;20475;-66
2023/09/07 10:00:28;;;;;;;2.90;2.80;;;24.30;49.60;;;;;;5004244;28;20499;-65
2023/09/07 10:03:23;;;;;;;3.17;2.97;;;24.30;49.60;;;;;;5007648;28;20226;-67
2023/09/07 10:05:49;;;;;;;3.83;3.63;;;24.30;49.50;;;;;;5006970;28;20547;-64
2023/09/07 10:08:18;;;;;;;3.23;3.03;;;24.30;49.60;;;;;;4985831;28;21410;-65
2023/09/07 10:10:47;;;;;;;3.13;2.97;;;24.30;49.60;;;;;;5006676;28;20234;-66
2023/09/07 10:13:29;;;;;;;3.20;3.00;;;24.30;49.60;;;;;;5007723;28;20543;-67
2023/09/07 10:16:01;;;;;;;3.43;3.27;;;24.30;49.50;;;;;;5006439;28;20462;-64
2023/09/07 10:18:34;;;;;;;3.03;2.83;;;24.30;49.60;;;;;;5005696;28;20528;-69
2023/09/07 10:21:02;;;;;;;3.13;2.93;;;24.30;49.60;;;;;;5005493;28;20589;-67
2023/09/07 10:23:44;;;;;;;3.03;2.83;;;24.30;49.60;;;;;;5007577;28;20480;-64
2023/09/07 10:26:16;;;;;;;3.00;2.90;;;24.30;49.50;;;;;;5004888;28;20560;-67
2023/09/07 10:28:43;;;;;;;3.03;2.93;;;24.30;49.70;;;;;;5007491;28;20479;-63
2023/09/07 10:31:19;;;;;;;3.20;3.10;;;24.30;49.70;;;;;;5002399;28;20507;-65
2023/09/07 10:33:46;;;;;;;2.93;2.80;;;24.30;49.60;;;;;;5004547;28;20471;-67
2023/09/07 10:36:22;;;;;;;3.10;2.90;;;24.30;49.60;;;;;;5008421;28;20468;-65
2023/09/07 10:38:48;;;;;;;3.17;3.00;;;24.30;49.50;;;;;;5007565;28;20491;-69
2023/09/07 10:41:14;;;;;;;2.97;2.87;;;24.30;49.60;;;;;;5007564;28;20507;-68
2023/09/07 10:43:51;;;;;;;3.00;2.90;;;24.30;49.60;;;;;;4999760;28;20583;-67
2023/09/07 10:46:20;;;;;;;3.03;2.90;;;24.30;49.60;;;;;;5005814;28;20214;-65
2023/09/07 10:48:50;;;;;;;2.93;2.83;;;24.30;49.60;;;;;;5004731;28;20480;-70
2023/09/07 10:51:15;;;;;;;3.20;3.10;;;24.40;49.70;;;;;;5005596;28;20478;-67
2023/09/07 10:53:41;;;;;;;2.87;2.77;;;24.30;49.60;;;;;;4988731;28;20464;-63
2023/09/07 10:56:07;;;;;;;2.93;2.83;;;24.30;49.60;;;;;;5008264;28;20242;-69
2023/09/07 10:58:34;;;;;;;3.07;2.87;;;24.30;49.70;;;;;;5003801;28;20475;-70
2023/09/07 11:01:01;;;;;;;2.70;2.60;;;24.30;49.60;;;;;;5006946;28;20254;-66
2023/09/07 11:03:27;;;;;;;2.97;2.87;;;24.30;49.60;;;;;;5008632;28;20772;-67
2023/09/07 11:06:19;;;;;;;2.70;2.60;;;24.30;49.60;;;;;;5007679;28;20554;-71
2023/09/07 11:08:46;;;;;;;2.53;2.43;;;24.30;49.50;;;;;;5002770;28;20475;-64
2023/09/07 11:11:12;;;;;;;3.20;3.00;;;24.30;49.60;;;;;;5007643;28;20973;-64
2023/09/07 11:13:38;;;;;;;2.77;2.67;;;24.30;49.60;;;;;;5005781;28;20525;-63
2023/09/07 11:16:08;;;;;;;3.00;2.80;;;24.30;49.60;;;;;;5009004;28;20456;-72
2023/09/07 11:18:35;;;;;;;2.70;2.60;;;24.30;49.60;;;;;;5007778;28;20280;-66
2023/09/07 11:21:03;;;;;;;2.63;2.53;;;24.30;49.60;;;;;;5005827;28;20473;-67
2023/09/07 11:23:37;;;;;;;2.50;2.40;;;24.30;49.60;;;;;;5009564;28;20483;-73
2023/09/07 11:26:05;;;;;;;2.90;2.80;;;24.40;49.70;;;;;;5000904;28;20460;-73
2023/09/07 11:28:31;;;;;;;2.73;2.63;;;24.40;49.70;;;;;;5010108;28;21036;-72
2023/09/07 11:30:57;;;;;;;2.63;2.53;;;24.30;49.60;;;;;;5011361;28;20591;-64
2023/09/07 11:33:23;;;;;;;2.97;2.87;;;24.40;49.70;;;;;;5008982;28;20470;-63
2023/09/07 11:35:49;;;;;;;2.80;2.70;;;24.40;49.70;;;;;;5003680;28;20476;-69
2023/09/07 11:38:16;;;;;;;2.50;2.40;;;24.40;49.70;;;;;;5005539;28;20233;-68
2023/09/07 11:40:44;;;;;;;3.00;2.90;;;24.40;49.70;;;;;;5008575;28;20226;-65
2023/09/07 11:43:10;;;;;;;2.90;2.80;;;24.40;49.70;;;;;;5008951;28;20470;-71
2023/09/07 11:45:36;;;;;;;2.70;2.60;;;24.40;49.70;;;;;;5008592;28;21061;-66
2023/09/07 11:48:02;;;;;;;3.10;3.00;;;24.40;49.60;;;;;;5008362;28;20499;-69
2023/09/07 11:50:30;;;;;;;2.90;2.73;;;24.40;49.70;;;;;;5009168;28;20763;-68
2023/09/07 11:52:56;;;;;;;3.00;2.90;;;24.40;49.70;;;;;;5007436;28;20250;-72
2023/09/07 11:55:22;;;;;;;3.40;3.20;;;24.40;49.60;;;;;;5009150;28;20436;-69
2023/09/07 11:57:48;;;;;;;3.03;2.93;;;24.40;49.70;;;;;;5008787;28;20918;-65
2023/09/07 12:00:14;;;;;;;2.50;2.40;;;24.40;49.70;;;;;;4993740;28;20226;-67
2023/09/07 12:02:40;;;;;;;3.37;3.17;;;24.40;49.70;;;;;;5004109;28;20654;-74
2023/09/07 12:05:09;;;;;;;3.13;2.80;;;24.40;49.60;;;;;;4998041;28;20554;-69
2023/09/07 12:07:36;;;;;;;3.13;2.93;;;24.40;49.70;;;;;;4993121;28;20487;-68
2023/09/07 12:10:02;;;;;;;10.00;3.10;;;24.40;49.60;;;;;;5009931;28;21228;-71
2023/09/07 12:12:28;;;;;;;3.00;2.90;;;24.40;49.60;;;;;;5010486;28;20460;-65
2023/09/07 12:14:56;;;;;;;2.93;2.83;;;24.40;49.60;;;;;;5009134;28;20590;-66
2023/09/07 12:17:22;;;;;;;3.47;3.27;;;24.40;49.70;;;;;;5006229;28;20234;-68
2023/09/07 12:19:47;;;;;;;2.80;2.70;;;24.40;49.60;;;;;;5008150;28;20605;-66
2023/09/07 12:22:13;;;;;;;2.90;2.70;;;24.40;49.60;;;;;;5005749;28;21046;-64
2023/09/07 12:24:38;;;;;;;2.80;2.70;;;24.40;49.60;;;;;;5010278;28;20250;-66
2023/09/07 12:27:04;;;;;;;2.90;2.80;;;24.40;49.60;;;;;;5003495;28;20800;-65
2023/09/07 12:29:29;;;;;;;3.03;2.93;;;24.40;49.60;;;;;;5006962;28;20757;-66
2023/09/07 12:31:55;;;;;;;2.67;2.57;;;24.40;49.60;;;;;;5007268;28;20333;-72
2023/09/07 12:34:21;;;;;;;2.90;2.80;;;24.40;49.60;;;;;;5008850;28;20226;-72
2023/09/07 12:36:46;;;;;;;3.43;3.23;;;24.40;49.60;;;;;;5004766;28;21155;-71
2023/09/07 12:39:12;;;;;;;3.10;3.00;;;24.40;49.60;;;;;;5011393;28;20214;-66
2023/09/07 12:41:38;;;;;;;3.30;3.10;;;24.40;49.60;;;;;;5011268;28;20306;-65
2023/09/07 12:44:04;;;;;;;3.00;2.90;;;24.40;50.10;;;;;;5010239;28;20468;-66